Niceville — WDE9467 — position and weather

sailwx.info

Track history (hours):
 
Tides and Currents Weather Stations Pressure Air Temp Water Temp Dewpoint Dewpoint Depression Visibility Wind Speed Wind Dir Waves Ship Positions

Niceville

Owner: Kirby Inland Marine LP, Houston, TX. More information available from US FCC via Universal Licensing System and Coast Guard Vessel Documentation Center.

Last reported at 2017-Oct-08 09:39 UTC. Time now 2017-Oct-19 16:16 UTC.
Position N 29°49' W 092°02'.
Warning: this ship's position is 11 days out of date.

Length 114 m; draft 3 m.

Type: . MMSI: 367417570.

Date/timePositionNaut miles runAvg speedWind from/ knotsBaromVisibWave heightAir tempDewpointWater temp
2017-Oct-08 09:39N 29°49' W 092°02'1 5.0
2017-Oct-08 09:28N 29°49' W 092°03'2 4.9
2017-Oct-08 09:01N 29°48' W 092°05'2 4.9
2017-Oct-08 08:30N 29°47' W 092°08'2 4.4
2017-Oct-08 08:01N 29°47' W 092°11'2 3.5
2017-Oct-08 07:30N 29°47' W 092°12'1 3.0
2017-Oct-08 07:00N 29°48' W 092°14'2 4.0
2017-Oct-08 06:31N 29°49' W 092°16'2 4.4
2017-Oct-08 05:58N 29°50' W 092°18'41 4.5
2017-Oct-07 20:53N 29°56' W 093°05'2 4.7
2017-Oct-07 20:31N 29°56' W 093°07'2 4.6
2017-Oct-07 20:00N 29°56' W 093°09'2 4.7
2017-Oct-07 19:30N 29°58' W 093°11'2 4.8
2017-Oct-07 19:00N 29°60' W 093°13'2 4.3
2017-Oct-07 18:30N 30°02' W 093°14'2 4.1
2017-Oct-07 18:00N 30°03' W 093°16'2 4.8
2017-Oct-07 17:31N 30°05' W 093°17'1 1.7
2017-Oct-07 17:00N 30°06' W 093°18'2 3.2
2017-Oct-07 16:31N 30°05' W 093°20'2 3.7
2017-Oct-07 16:01N 30°04' W 093°21'2 3.8
2017-Oct-07 15:30N 30°04' W 093°23'2 4.9
2017-Oct-07 15:00N 30°04' W 093°26'3 4.9
2017-Oct-07 14:23N 30°04' W 093°30'79 4.4
2017-Oct-06 20:16N 29°30' W 094°52'2 6.9
2017-Oct-06 20:00N 29°31' W 094°53'3 7.1
2017-Oct-06 19:31N 29°34' W 094°55'4 7.1
2017-Oct-06 19:00N 29°37' W 094°58'4 7.4
2017-Oct-06 18:31N 29°41' W 094°59'4 6.7
2017-Oct-06 17:59N 29°43' W 095°01'3 6.7
2017-Oct-06 17:30N 29°45' W 095°04'1 0.2
2017-Oct-06 10:30N 29°45' W 095°06'2 0.7
2017-Oct-06 07:33N 29°47' W 095°04'0 1.9
2017-Oct-06 07:27N 29°47' W 095°04'5 0.1
2017-Oct-04 19:48N 29°42' W 095°01'2 6.6
2017-Oct-04 19:30N 29°41' W 094°59'5 7.2
2017-Oct-04 18:47N 29°36' W 094°57'2 7.3
2017-Oct-04 18:28N 29°35' W 094°56'72 2.3
2017-Oct-03 10:45N 30°04' W 093°39'4 5.4
2017-Oct-03 09:59N 30°04' W 093°35'2 4.6
2017-Oct-03 09:29N 30°04' W 093°32'3 6.0
2017-Oct-03 08:59N 30°04' W 093°29'3 6.1
2017-Oct-03 08:30N 30°04' W 093°25'3 5.8
2017-Oct-03 08:00N 30°04' W 093°22'2 4.0
2017-Oct-03 07:29N 30°05' W 093°20'2 3.7
2017-Oct-03 07:00N 30°06' W 093°18'0 0.1
2017-Oct-03 06:30N 30°06' W 093°18'0 0.0
2017-Oct-03 06:00N 30°06' W 093°18'0 0.3
2017-Oct-03 05:30N 30°06' W 093°18'1 2.3
2017-Oct-03 05:00N 30°05' W 093°17'1 2.0
2017-Oct-03 04:30N 30°04' W 093°16'0 0.1
2017-Oct-03 04:00N 30°04' W 093°16'0 0.0
2017-Oct-03 03:30N 30°04' W 093°16'0 0.0
2017-Oct-03 03:00N 30°04' W 093°16'0 0.0
2017-Oct-03 02:30N 30°04' W 093°16'0 0.0
2017-Oct-03 02:00N 30°04' W 093°16'0 0.0
2017-Oct-03 01:30N 30°04' W 093°16'0 0.0
2017-Oct-03 01:00N 30°04' W 093°16'0 0.0
2017-Oct-03 00:30N 30°04' W 093°16'0 0.0
2017-Oct-03 00:00N 30°04' W 093°16'0 0.0
2017-Oct-02 23:30N 30°04' W 093°16'0 0.0
2017-Oct-02 23:00N 30°04' W 093°16'0 0.0
2017-Oct-02 22:30N 30°04' W 093°16'0 0.0
2017-Oct-02 22:00N 30°04' W 093°16'0 0.0
2017-Oct-02 21:30N 30°04' W 093°16'0 0.0
2017-Oct-02 21:00N 30°04' W 093°16'0 0.0
2017-Oct-02 20:30N 30°04' W 093°16'0 0.0
2017-Oct-02 20:00N 30°04' W 093°16'0 0.0
2017-Oct-02 19:30N 30°04' W 093°16'0 0.0
2017-Oct-02 19:00N 30°04' W 093°16'0 0.0
2017-Oct-02 18:30N 30°04' W 093°16'0 0.1
2017-Oct-02 18:00N 30°04' W 093°16'0 0.0
2017-Oct-02 17:30N 30°04' W 093°16'2 4.3
2017-Oct-02 17:00N 30°02' W 093°16'3 5.8
2017-Oct-02 16:30N 30°00' W 093°13'0 1.0
2017-Oct-02 16:00N 29°60' W 093°13'0 0.0
2017-Oct-02 15:30N 29°60' W 093°13'0 0.0
2017-Oct-02 15:00N 29°60' W 093°13'0 0.5
2017-Oct-02 14:30N 29°59' W 093°13'3 6.3
2017-Oct-02 14:00N 29°57' W 093°10'3 5.6
2017-Oct-02 13:30N 29°56' W 093°07'3 5.8
2017-Oct-02 13:00N 29°56' W 093°04'39 4.9
2017-Oct-02 05:02N 29°50' W 092°19'1 5.0
2017-Oct-02 04:51N 29°50' W 092°18'2 4.6
2017-Oct-02 04:30N 29°49' W 092°17'3 5.2
2017-Oct-02 04:00N 29°48' W 092°14'2 4.7
2017-Oct-02 03:30N 29°47' W 092°12'1 1.6
2017-Oct-02 03:00N 29°47' W 092°11'0 0.0
2017-Oct-02 02:31N 29°47' W 092°11'0 0.0
2017-Oct-02 02:00N 29°47' W 092°11'0 0.0
2017-Oct-02 01:31N 29°47' W 092°11'0 0.9
2017-Oct-02 01:00N 29°47' W 092°11'3 5.6
2017-Oct-02 00:31N 29°47' W 092°07'3 6.3
2017-Oct-02 00:00N 29°48' W 092°04'58 4.6
2017-Oct-01 11:18N 29°36' W 090°58'2 5.5
2017-Oct-01 11:00N 29°35' W 090°57'3 5.7
2017-Oct-01 10:30N 29°33' W 090°55'4 5.7
2017-Oct-01 09:53N 29°32' W 090°51'2 6.0
2017-Oct-01 09:30N 29°32' W 090°48'3 5.1
2017-Oct-01 09:00N 29°33' W 090°45'2 4.6
2017-Oct-01 08:30N 29°34' W 090°43'2 4.2
2017-Oct-01 08:00N 29°36' W 090°43'2 3.7
2017-Oct-01 07:30N 29°36' W 090°40'3 5.0
2017-Oct-01 07:00N 29°35' W 090°38'4 3.9
2017-Oct-01 05:56N 29°34' W 090°33'3 6.1
2017-Oct-01 05:30N 29°34' W 090°30'5 6.0
2017-Oct-01 04:43N 29°33' W 090°25'1 5.1
2017-Oct-01 04:30N 29°33' W 090°24'2 4.8
2017-Oct-01 04:00N 29°35' W 090°22'3 5.9
2017-Oct-01 03:30N 29°38' W 090°21'  
Track history (hours):
 
Tides and Currents Weather Stations Pressure Air Temp Water Temp Dewpoint Dewpoint Depression Visibility Wind Speed Wind Dir Waves Ship Positions

Niceville

Owner: Kirby Inland Marine LP, Houston, TX. More information available from US FCC via Universal Licensing System and Coast Guard Vessel Documentation Center.

Last reported at 2017-Oct-08 09:39 UTC. Time now 2017-Oct-19 16:16 UTC.
Position N 29°49' W 092°02'.
Warning: this ship's position is 11 days out of date.

Length 114 m; draft 3 m.

Type: . MMSI: 367417570.

Date/timePositionNaut miles runAvg speedWind from/ knotsBaromVisibWave heightAir tempDewpointWater temp
2017-Oct-08 09:39N 29°49' W 092°02'1 5.0
2017-Oct-08 09:28N 29°49' W 092°03'2 4.9
2017-Oct-08 09:01N 29°48' W 092°05'2 4.9
2017-Oct-08 08:30N 29°47' W 092°08'2 4.4
2017-Oct-08 08:01N 29°47' W 092°11'2 3.5
2017-Oct-08 07:30N 29°47' W 092°12'1 3.0
2017-Oct-08 07:00N 29°48' W 092°14'2 4.0
2017-Oct-08 06:31N 29°49' W 092°16'2 4.4
2017-Oct-08 05:58N 29°50' W 092°18'41 4.5
2017-Oct-07 20:53N 29°56' W 093°05'2 4.7
2017-Oct-07 20:31N 29°56' W 093°07'2 4.6
2017-Oct-07 20:00N 29°56' W 093°09'2 4.7
2017-Oct-07 19:30N 29°58' W 093°11'2 4.8
2017-Oct-07 19:00N 29°60' W 093°13'2 4.3
2017-Oct-07 18:30N 30°02' W 093°14'2 4.1
2017-Oct-07 18:00N 30°03' W 093°16'2 4.8
2017-Oct-07 17:31N 30°05' W 093°17'1 1.7
2017-Oct-07 17:00N 30°06' W 093°18'2 3.2
2017-Oct-07 16:31N 30°05' W 093°20'2 3.7
2017-Oct-07 16:01N 30°04' W 093°21'2 3.8
2017-Oct-07 15:30N 30°04' W 093°23'2 4.9
2017-Oct-07 15:00N 30°04' W 093°26'3 4.9
2017-Oct-07 14:23N 30°04' W 093°30'79 4.4
2017-Oct-06 20:16N 29°30' W 094°52'2 6.9
2017-Oct-06 20:00N 29°31' W 094°53'3 7.1
2017-Oct-06 19:31N 29°34' W 094°55'4 7.1
2017-Oct-06 19:00N 29°37' W 094°58'4 7.4
2017-Oct-06 18:31N 29°41' W 094°59'4 6.7
2017-Oct-06 17:59N 29°43' W 095°01'3 6.7
2017-Oct-06 17:30N 29°45' W 095°04'1 0.2
2017-Oct-06 10:30N 29°45' W 095°06'2 0.7
2017-Oct-06 07:33N 29°47' W 095°04'0 1.9
2017-Oct-06 07:27N 29°47' W 095°04'5 0.1
2017-Oct-04 19:48N 29°42' W 095°01'2 6.6
2017-Oct-04 19:30N 29°41' W 094°59'5 7.2
2017-Oct-04 18:47N 29°36' W 094°57'2 7.3
2017-Oct-04 18:28N 29°35' W 094°56'72 2.3
2017-Oct-03 10:45N 30°04' W 093°39'4 5.4
2017-Oct-03 09:59N 30°04' W 093°35'2 4.6
2017-Oct-03 09:29N 30°04' W 093°32'3 6.0
2017-Oct-03 08:59N 30°04' W 093°29'3 6.1
2017-Oct-03 08:30N 30°04' W 093°25'3 5.8
2017-Oct-03 08:00N 30°04' W 093°22'2 4.0
2017-Oct-03 07:29N 30°05' W 093°20'2 3.7
2017-Oct-03 07:00N 30°06' W 093°18'0 0.1
2017-Oct-03 06:30N 30°06' W 093°18'0 0.0
2017-Oct-03 06:00N 30°06' W 093°18'0 0.3
2017-Oct-03 05:30N 30°06' W 093°18'1 2.3
2017-Oct-03 05:00N 30°05' W 093°17'1 2.0
2017-Oct-03 04:30N 30°04' W 093°16'0 0.1
2017-Oct-03 04:00N 30°04' W 093°16'0 0.0
2017-Oct-03 03:30N 30°04' W 093°16'0 0.0
2017-Oct-03 03:00N 30°04' W 093°16'0 0.0
2017-Oct-03 02:30N 30°04' W 093°16'0 0.0
2017-Oct-03 02:00N 30°04' W 093°16'0 0.0
2017-Oct-03 01:30N 30°04' W 093°16'0 0.0
2017-Oct-03 01:00N 30°04' W 093°16'0 0.0
2017-Oct-03 00:30N 30°04' W 093°16'0 0.0
2017-Oct-03 00:00N 30°04' W 093°16'0 0.0
2017-Oct-02 23:30N 30°04' W 093°16'0 0.0
2017-Oct-02 23:00N 30°04' W 093°16'0 0.0
2017-Oct-02 22:30N 30°04' W 093°16'0 0.0
2017-Oct-02 22:00N 30°04' W 093°16'0 0.0
2017-Oct-02 21:30N 30°04' W 093°16'0 0.0
2017-Oct-02 21:00N 30°04' W 093°16'0 0.0
2017-Oct-02 20:30N 30°04' W 093°16'0 0.0
2017-Oct-02 20:00N 30°04' W 093°16'0 0.0
2017-Oct-02 19:30N 30°04' W 093°16'0 0.0
2017-Oct-02 19:00N 30°04' W 093°16'0 0.0
2017-Oct-02 18:30N 30°04' W 093°16'0 0.1
2017-Oct-02 18:00N 30°04' W 093°16'0 0.0
2017-Oct-02 17:30N 30°04' W 093°16'2 4.3
2017-Oct-02 17:00N 30°02' W 093°16'3 5.8
2017-Oct-02 16:30N 30°00' W 093°13'0 1.0
2017-Oct-02 16:00N 29°60' W 093°13'0 0.0
2017-Oct-02 15:30N 29°60' W 093°13'0 0.0
2017-Oct-02 15:00N 29°60' W 093°13'0 0.5
2017-Oct-02 14:30N 29°59' W 093°13'3 6.3
2017-Oct-02 14:00N 29°57' W 093°10'3 5.6
2017-Oct-02 13:30N 29°56' W 093°07'3 5.8
2017-Oct-02 13:00N 29°56' W 093°04'39 4.9
2017-Oct-02 05:02N 29°50' W 092°19'1 5.0
2017-Oct-02 04:51N 29°50' W 092°18'2 4.6
2017-Oct-02 04:30N 29°49' W 092°17'3 5.2
2017-Oct-02 04:00N 29°48' W 092°14'2 4.7
2017-Oct-02 03:30N 29°47' W 092°12'1 1.6
2017-Oct-02 03:00N 29°47' W 092°11'0 0.0
2017-Oct-02 02:31N 29°47' W 092°11'0 0.0
2017-Oct-02 02:00N 29°47' W 092°11'0 0.0
2017-Oct-02 01:31N 29°47' W 092°11'0 0.9
2017-Oct-02 01:00N 29°47' W 092°11'3 5.6
2017-Oct-02 00:31N 29°47' W 092°07'3 6.3
2017-Oct-02 00:00N 29°48' W 092°04'58 4.6
2017-Oct-01 11:18N 29°36' W 090°58'2 5.5
2017-Oct-01 11:00N 29°35' W 090°57'3 5.7
2017-Oct-01 10:30N 29°33' W 090°55'4 5.7
2017-Oct-01 09:53N 29°32' W 090°51'2 6.0
2017-Oct-01 09:30N 29°32' W 090°48'3 5.1
2017-Oct-01 09:00N 29°33' W 090°45'2 4.6
2017-Oct-01 08:30N 29°34' W 090°43'2 4.2
2017-Oct-01 08:00N 29°36' W 090°43'2 3.7
2017-Oct-01 07:30N 29°36' W 090°40'3 5.0
2017-Oct-01 07:00N 29°35' W 090°38'4 3.9
2017-Oct-01 05:56N 29°34' W 090°33'3 6.1
2017-Oct-01 05:30N 29°34' W 090°30'5 6.0
2017-Oct-01 04:43N 29°33' W 090°25'1 5.1
2017-Oct-01 04:30N 29°33' W 090°24'2 4.8
2017-Oct-01 04:00N 29°35' W 090°22'3 5.9
2017-Oct-01 03:30N 29°38' W 090°21'  

Dump ship's entire track history